Time;durP1;ratioP1;P1;durP2;ratioP2;P2;SDS_P1;SDS_P2;PMS_P1;PMS_P2;Temp;Humidity;BMP_temperature;BMP_pressure;BME280_temperature;BME280_humidity;BME280_pressure;Samples;Min_cycle;Max_cycle;Signal;HPM_P1;HPM_P2
2023/12/21 00:01:37;;;;;;;0.20;0.20;;;9.00;99.90;;;;;;5053950;28;20075;-88
2023/12/21 00:04:03;;;;;;;0.10;0.10;;;9.00;99.90;;;;;;5036075;28;20044;-89
2023/12/21 00:06:29;;;;;;;0.32;0.25;;;9.00;99.90;;;;;;5054165;28;20065;-89
2023/12/21 00:08:55;;;;;;;0.88;0.50;;;9.00;99.90;;;;;;5054996;28;20510;-88
2023/12/21 00:11:21;;;;;;;0.05;0.05;;;9.00;99.90;;;;;;5057516;28;20041;-88
2023/12/21 00:13:47;;;;;;;1.55;1.30;;;9.00;99.90;;;;;;5057463;28;20072;-88
2023/12/21 00:16:13;;;;;;;0.10;0.10;;;9.20;99.90;;;;;;5022955;28;20122;-88
2023/12/21 00:18:38;;;;;;;3.03;1.30;;;9.00;99.90;;;;;;5023534;28;20045;-89
2023/12/21 00:21:04;;;;;;;0.38;0.38;;;9.00;99.90;;;;;;5057885;28;20045;-89
2023/12/21 00:23:30;;;;;;;0.00;0.00;;;9.00;99.90;;;;;;5058172;28;20037;-89
2023/12/21 00:25:56;;;;;;;0.00;0.00;;;9.00;99.90;;;;;;5057700;28;20051;-88
2023/12/21 00:28:21;;;;;;;0.00;0.00;;;9.00;99.90;;;;;;5057865;28;20490;-89
2023/12/21 00:30:47;;;;;;;3.75;2.25;;;9.00;99.90;;;;;;5022874;28;20114;-89
2023/12/21 00:33:12;;;;;;;0.30;0.30;;;9.00;99.90;;;;;;5057184;28;20033;-88
2023/12/21 00:35:38;;;;;;;0.45;0.45;;;9.00;99.90;;;;;;5018768;28;20096;-89
2023/12/21 00:38:04;;;;;;;4.65;1.00;;;9.00;99.90;;;;;;5023201;28;20041;-89
2023/12/21 00:40:29;;;;;;;0.10;0.10;;;10.40;99.90;;;;;;5057277;28;20037;-89
2023/12/21 00:42:57;;;;;;;0.10;0.10;;;9.00;99.90;;;;;;5057275;28;20064;-89
2023/12/21 00:45:22;;;;;;;0.47;0.47;;;9.00;99.90;;;;;;5057004;28;20041;-89
2023/12/21 00:47:48;;;;;;;0.00;0.00;;;9.00;99.90;;;;;;5038832;28;20048;-89
2023/12/21 00:50:14;;;;;;;0.05;0.05;;;9.00;99.90;;;;;;5038550;28;20045;-88
2023/12/21 00:52:40;;;;;;;0.10;0.10;;;9.00;56.00;;;;;;5039355;28;20503;-88
2023/12/21 00:55:06;;;;;;;1.65;0.65;;;9.00;58.60;;;;;;5038855;28;20080;-88
2023/12/21 00:57:32;;;;;;;0.30;0.30;;;9.00;99.50;;;;;;5038696;28;20045;-89
2023/12/21 00:59:57;;;;;;;0.00;0.00;;;9.00;99.90;;;;;;5038314;28;20127;-89
2023/12/21 01:02:23;;;;;;;0.00;0.00;;;9.00;96.90;;;;;;5038076;28;20079;-89
2023/12/21 01:04:48;;;;;;;2.80;0.45;;;9.00;99.90;;;;;;5021882;28;20120;-89
2023/12/21 01:07:14;;;;;;;1.23;0.77;;;9.50;99.90;;;;;;5055989;28;20040;-89
2023/12/21 01:09:39;;;;;;;0.20;0.20;;;9.00;99.90;;;;;;5038253;28;20100;-89
2023/12/21 01:12:06;;;;;;;0.73;0.73;;;9.00;99.90;;;;;;5038877;28;20052;-89
2023/12/21 01:14:32;;;;;;;0.00;0.00;;;9.00;99.90;;;;;;5038468;28;20041;-88
2023/12/21 01:16:57;;;;;;;0.25;0.20;;;9.00;99.90;;;;;;5038696;28;20124;-89
2023/12/21 01:19:23;;;;;;;0.00;0.00;;;9.00;99.90;;;;;;5038714;28;20080;-89
2023/12/21 01:21:49;;;;;;;4.47;2.22;;;9.00;99.90;;;;;;5038525;28;20041;-88
2023/12/21 01:24:14;;;;;;;0.52;0.52;;;8.90;99.90;;;;;;5037950;28;20045;-89
2023/12/21 01:26:40;;;;;;;0.35;0.35;;;8.90;99.90;;;;;;5021920;28;20040;-88
2023/12/21 01:29:06;;;;;;;0.00;0.00;;;9.00;99.90;;;;;;5038325;28;20045;-89
2023/12/21 01:31:31;;;;;;;0.20;0.20;;;9.10;99.90;;;;;;5038126;28;20037;-89
2023/12/21 01:33:57;;;;;;;0.28;0.28;;;9.00;99.90;;;;;;5038422;28;20509;-89
2023/12/21 01:36:22;;;;;;;2.58;1.35;;;9.00;99.90;;;;;;5037831;28;20041;-88
2023/12/21 01:38:48;;;;;;;0.55;0.55;;;9.00;99.90;;;;;;5021638;28;20037;-88
2023/12/21 01:41:14;;;;;;;0.00;0.00;;;9.10;99.90;;;;;;5056383;28;20052;-89
2023/12/21 01:43:39;;;;;;;3.20;1.85;;;9.10;99.90;;;;;;5038775;28;20043;-88
2023/12/21 01:46:05;;;;;;;0.15;0.08;;;9.40;99.90;;;;;;5038470;28;20057;-88
2023/12/21 01:48:31;;;;;;;14.80;1.48;;;9.30;99.90;;;;;;5038029;28;20072;-89
2023/12/21 01:51:01;;;;;;;0.10;0.10;;;9.00;99.90;;;;;;5038048;28;20376;-89
2023/12/21 01:53:28;;;;;;;0.00;0.00;;;9.00;99.90;;;;;;5038858;28;20094;-89
2023/12/21 01:55:54;;;;;;;0.00;0.00;;;9.00;99.90;;;;;;5037498;28;20082;-89
2023/12/21 01:58:20;;;;;;;0.73;0.13;;;9.00;99.90;;;;;;5037399;28;20048;-88
2023/12/21 02:00:46;;;;;;;0.00;0.00;;;9.00;99.90;;;;;;5037227;28;20068;-89
2023/12/21 02:03:12;;;;;;;0.15;0.08;;;9.70;99.90;;;;;;5037247;28;20044;-89
2023/12/21 02:05:37;;;;;;;0.30;0.30;;;9.00;99.90;;;;;;5056351;28;20508;-89
2023/12/21 02:08:03;;;;;;;0.45;0.28;;;9.00;99.90;;;;;;5021711;28;20047;-89
2023/12/21 02:10:29;;;;;;;4.20;0.80;;;9.00;99.90;;;;;;5037022;28;20056;-89
2023/12/21 02:12:56;;;;;;;1.42;1.20;;;9.00;99.90;;;;;;5037133;28;20127;-89
2023/12/21 02:15:21;;;;;;;0.20;0.20;;;9.10;99.90;;;;;;5055122;28;20049;-88
2023/12/21 02:17:48;;;;;;;0.20;0.20;;;9.00;99.90;;;;;;5055702;28;20556;-88
2023/12/21 02:20:15;;;;;;;0.32;0.22;;;9.00;99.90;;;;;;5038100;28;20041;-89
2023/12/21 02:22:42;;;;;;;2.55;1.23;;;9.00;99.90;;;;;;5057650;28;20048;-89
2023/12/21 02:25:09;;;;;;;0.20;0.20;;;9.00;99.90;;;;;;5039010;28;20501;-88
2023/12/21 02:27:34;;;;;;;0.00;0.00;;;9.10;99.90;;;;;;5022999;28;20183;-89
2023/12/21 02:30:00;;;;;;;0.10;0.10;;;9.00;99.90;;;;;;5023601;28;20514;-89
2023/12/21 02:32:25;;;;;;;3.97;1.17;;;9.00;99.90;;;;;;5057441;28;20497;-89
2023/12/21 02:34:51;;;;;;;0.45;0.45;;;9.00;99.90;;;;;;5057703;28;20123;-88
2023/12/21 02:37:18;;;;;;;0.63;0.22;;;9.00;99.90;;;;;;5058060;28;20040;-89
2023/12/21 02:39:44;;;;;;;1.70;1.17;;;10.30;99.90;;;;;;5057458;28;20037;-89
2023/12/21 02:42:10;;;;;;;0.63;0.45;;;9.10;99.90;;;;;;5038794;28;20052;-88
2023/12/21 02:44:35;;;;;;;9.95;1.33;;;9.00;99.90;;;;;;5056624;28;20044;-88
2023/12/21 02:47:01;;;;;;;0.13;0.13;;;9.00;99.90;;;;;;5038793;28;20037;-89
2023/12/21 02:49:26;;;;;;;1.80;0.40;;;9.00;99.90;;;;;;5057877;28;20037;-89
2023/12/21 02:51:52;;;;;;;0.00;0.00;;;9.00;99.90;;;;;;5041074;28;20068;-88
2023/12/21 02:54:18;;;;;;;0.28;0.28;;;9.10;99.90;;;;;;5024301;28;20047;-88
2023/12/21 02:56:43;;;;;;;0.00;0.00;;;10.00;99.90;;;;;;5024178;28;20045;-88
2023/12/21 02:59:09;;;;;;;0.00;0.00;;;9.10;99.90;;;;;;5040941;28;20125;-88
2023/12/21 03:01:40;;;;;;;0.03;0.03;;;10.00;99.90;;;;;;5058631;28;20084;-88
2023/12/21 03:04:06;;;;;;;0.20;0.20;;;9.10;99.90;;;;;;5041136;28;20548;-90
2023/12/21 03:06:31;;;;;;;0.20;0.10;;;9.10;99.90;;;;;;5058361;28;20041;-88
2023/12/21 03:08:57;;;;;;;0.63;0.45;;;9.00;99.90;;;;;;5058554;28;20502;-88
2023/12/21 03:11:22;;;;;;;0.45;0.45;;;9.10;99.90;;;;;;5024605;28;20057;-89
2023/12/21 03:13:48;;;;;;;0.10;0.10;;;9.10;99.90;;;;;;5057795;28;20052;-88
2023/12/21 03:16:16;;;;;;;0.22;0.22;;;9.90;99.90;;;;;;5041053;28;20383;-89
2023/12/21 03:18:42;;;;;;;0.00;0.00;;;9.10;99.90;;;;;;5041350;28;20052;-89
2023/12/21 03:21:09;;;;;;;0.00;0.00;;;9.10;99.90;;;;;;5040422;28;20129;-89
2023/12/21 03:23:35;;;;;;;0.10;0.10;;;9.00;99.90;;;;;;5040128;28;20075;-89
2023/12/21 03:26:00;;;;;;;0.90;0.20;;;9.70;99.90;;;;;;5024787;28;20045;-88
2023/12/21 03:28:26;;;;;;;4.78;0.93;;;9.00;99.90;;;;;;5059588;28;20120;-89
2023/12/21 03:30:51;;;;;;;0.10;0.10;;;9.00;99.90;;;;;;5041959;28;20055;-89
2023/12/21 03:33:17;;;;;;;1.65;1.25;;;9.00;99.90;;;;;;5041426;28;20041;-89
2023/12/21 03:35:43;;;;;;;0.22;0.22;;;9.40;99.90;;;;;;5060187;28;20132;-89
2023/12/21 03:38:08;;;;;;;0.10;0.10;;;9.10;99.90;;;;;;5059847;28;20041;-89
2023/12/21 03:40:34;;;;;;;1.15;0.57;;;9.00;99.90;;;;;;5026015;28;20040;-89
2023/12/21 03:42:59;;;;;;;5.18;0.28;;;9.10;99.90;;;;;;5060772;28;20483;-89
2023/12/21 03:45:25;;;;;;;0.15;0.08;;;9.30;99.90;;;;;;5045627;28;20465;-89
2023/12/21 03:47:50;;;;;;;0.00;0.00;;;9.10;99.90;;;;;;5063775;28;20120;-89
2023/12/21 03:50:16;;;;;;;0.00;0.00;;;9.90;99.90;;;;;;5045889;28;20037;-89
2023/12/21 03:52:42;;;;;;;0.00;0.00;;;9.10;99.90;;;;;;5063201;28;20431;-88
2023/12/21 03:55:07;;;;;;;1.10;0.55;;;9.10;99.90;;;;;;5063195;28;20045;-88
2023/12/21 03:57:33;;;;;;;0.57;0.45;;;9.10;99.90;;;;;;5063227;28;20041;-89
2023/12/21 04:00:00;;;;;;;0.88;0.28;;;10.10;99.90;;;;;;5045155;28;20049;-89
2023/12/21 04:02:26;;;;;;;0.20;0.20;;;9.00;99.90;;;;;;5063658;28;20047;-90
2023/12/21 04:04:52;;;;;;;9.32;1.23;;;9.90;99.90;;;;;;5062775;28;20040;-89
2023/12/21 04:07:17;;;;;;;0.00;0.00;;;9.10;99.90;;;;;;5028836;28;20509;-89
2023/12/21 04:09:43;;;;;;;3.33;0.22;;;9.10;99.90;;;;;;5044293;28;20091;-89
2023/12/21 04:12:09;;;;;;;0.00;0.00;;;9.10;99.90;;;;;;5044082;28;20045;-89
2023/12/21 04:14:34;;;;;;;0.32;0.30;;;10.20;99.90;;;;;;5042202;28;20049;-89
2023/12/21 04:17:00;;;;;;;0.75;0.40;;;9.10;99.90;;;;;;5059702;28;20386;-89
2023/12/21 04:19:26;;;;;;;0.28;0.28;;;9.20;99.90;;;;;;5025710;28;20045;-89
2023/12/21 04:21:52;;;;;;;0.00;0.00;;;9.10;99.90;;;;;;5061001;28;20060;-89
2023/12/21 04:24:18;;;;;;;0.10;0.10;;;9.50;99.90;;;;;;5043233;28;20041;-89
2023/12/21 04:26:44;;;;;;;0.03;0.03;;;9.10;99.90;;;;;;5026874;28;20041;-89
2023/12/21 04:29:09;;;;;;;15.57;0.80;;;10.50;99.90;;;;;;5061155;28;20040;-89
2023/12/21 04:31:35;;;;;;;0.00;0.00;;;9.10;99.90;;;;;;5041774;28;20052;-89
2023/12/21 04:34:01;;;;;;;0.40;0.40;;;9.10;99.90;;;;;;5060264;28;20036;-89
2023/12/21 04:36:27;;;;;;;0.00;0.00;;;9.10;99.90;;;;;;5041657;28;20167;-88
2023/12/21 04:38:55;;;;;;;0.00;0.00;;;9.10;99.90;;;;;;5041762;28;20064;-89
2023/12/21 04:41:21;;;;;;;1.60;0.52;;;9.50;99.90;;;;;;5041879;28;20049;-89
2023/12/21 04:43:46;;;;;;;0.22;0.22;;;10.40;99.90;;;;;;5025493;28;20405;-90
2023/12/21 04:46:12;;;;;;;0.00;0.00;;;9.10;99.90;;;;;;5042298;28;20055;-89
2023/12/21 04:48:37;;;;;;;0.10;0.10;;;9.10;99.90;;;;;;5025544;28;20517;-89
2023/12/21 04:51:03;;;;;;;0.25;0.25;;;9.10;99.90;;;;;;5059918;28;20048;-89
2023/12/21 04:53:29;;;;;;;0.65;0.28;;;9.10;99.90;;;;;;5059938;28;20045;-89
2023/12/21 04:55:54;;;;;;;0.43;0.38;;;9.10;99.90;;;;;;5060829;28;20106;-89
2023/12/21 04:58:20;;;;;;;0.10;0.10;;;9.10;99.90;;;;;;5043416;28;20076;-89
2023/12/21 05:00:50;;;;;;;0.10;0.10;;;9.10;99.90;;;;;;5061080;28;20041;-89
2023/12/21 05:03:18;;;;;;;0.00;0.00;;;9.10;99.90;;;;;;5027215;28;20049;-89
2023/12/21 05:05:44;;;;;;;0.47;0.43;;;9.50;99.90;;;;;;5061817;28;20403;-89
2023/12/21 05:08:10;;;;;;;0.80;0.65;;;10.10;99.90;;;;;;5043668;28;20109;-89
2023/12/21 05:10:36;;;;;;;0.00;0.00;;;9.10;99.90;;;;;;5060731;28;20049;-89
2023/12/21 05:13:01;;;;;;;0.40;0.35;;;9.10;99.90;;;;;;5025004;28;20057;-89
2023/12/21 05:15:27;;;;;;;0.15;0.15;;;9.10;99.90;;;;;;5058949;28;20055;-88
2023/12/21 05:17:53;;;;;;;0.00;0.00;;;9.10;99.90;;;;;;5058713;28;20040;-88
2023/12/21 05:20:19;;;;;;;1.75;0.75;;;9.10;99.90;;;;;;5041240;28;20108;-88
2023/12/21 05:22:44;;;;;;;0.00;0.00;;;9.10;99.90;;;;;;5043053;28;20134;-88
2023/12/21 05:25:10;;;;;;;0.93;0.90;;;9.10;99.90;;;;;;5026113;28;20051;-88
2023/12/21 05:27:36;;;;;;;0.00;0.00;;;9.10;99.90;;;;;;5025725;28;20417;-88
2023/12/21 05:30:01;;;;;;;1.55;1.45;;;9.20;99.90;;;;;;5060319;28;20049;-88
2023/12/21 05:32:27;;;;;;;0.40;0.40;;;9.20;99.90;;;;;;5043939;28;20104;-88
2023/12/21 05:34:53;;;;;;;0.00;0.00;;;9.10;99.90;;;;;;5026172;28;20036;-88
2023/12/21 05:37:18;;;;;;;0.93;0.82;;;9.20;99.90;;;;;;5059822;28;20041;-89
2023/12/21 05:39:47;;;;;;;0.55;0.52;;;9.20;69.10;;;;;;5060317;28;20079;-89
2023/12/21 05:42:14;;;;;;;0.00;0.00;;;9.10;99.90;;;;;;5054951;28;20040;-89
2023/12/21 05:44:39;;;;;;;0.10;0.10;;;9.10;99.90;;;;;;5078738;28;20048;-88
2023/12/21 05:47:05;;;;;;;0.25;0.25;;;9.10;99.90;;;;;;5044332;28;20062;-89
2023/12/21 05:49:30;;;;;;;0.00;0.00;;;9.10;99.90;;;;;;5079237;28;20490;-89
2023/12/21 05:51:56;;;;;;;0.05;0.05;;;9.20;99.90;;;;;;5063073;28;20036;-88
2023/12/21 05:54:22;;;;;;;0.00;0.00;;;9.20;99.90;;;;;;5045175;28;20070;-88
2023/12/21 05:56:47;;;;;;;1.25;0.38;;;9.20;99.90;;;;;;5062775;28;20048;-89
2023/12/21 05:59:13;;;;;;;0.17;0.17;;;9.80;99.90;;;;;;5081312;28;20385;-89
2023/12/21 06:01:41;;;;;;;4.05;2.30;;;9.10;99.90;;;;;;5062456;28;20047;-89
2023/12/21 06:04:06;;;;;;;1.17;1.10;;;9.20;99.90;;;;;;5082031;28;20045;-89
2023/12/21 06:06:32;;;;;;;0.00;0.00;;;9.80;99.90;;;;;;5063818;28;20485;-89
2023/12/21 06:08:58;;;;;;;0.13;0.13;;;10.10;99.90;;;;;;5063884;28;20102;-89
2023/12/21 06:11:24;;;;;;;0.05;0.05;;;9.30;99.90;;;;;;5063995;28;20045;-89
2023/12/21 06:13:49;;;;;;;2.78;1.38;;;9.20;99.90;;;;;;5063623;28;20068;-88
2023/12/21 06:16:15;;;;;;;0.32;0.32;;;9.20;99.90;;;;;;5082107;28;20389;-88
2023/12/21 06:18:41;;;;;;;1.10;0.65;;;9.20;68.30;;;;;;5081504;28;20044;-88
2023/12/21 06:21:07;;;;;;;0.00;0.00;;;10.40;12.10;;;;;;5081561;28;20047;-88
2023/12/21 06:23:32;;;;;;;0.00;0.00;;;9.20;12.50;;;;;;5081719;28;20040;-88
2023/12/21 06:25:58;;;;;;;0.00;0.00;;;9.20;43.20;;;;;;5081860;28;20389;-88
2023/12/21 06:28:24;;;;;;;0.00;0.00;;;9.20;42.50;;;;;;5081674;28;20072;-88
2023/12/21 06:30:49;;;;;;;0.35;0.30;;;9.20;44.80;;;;;;5032944;28;20041;-88
2023/12/21 06:33:16;;;;;;;0.15;0.15;;;10.40;29.00;;;;;;5054926;28;20045;-89
2023/12/21 06:35:41;;;;;;;0.57;0.47;;;10.20;1.00;;;;;;5053544;28;20111;-88
2023/12/21 06:38:07;;;;;;;1.17;1.08;;;9.30;1.00;;;;;;5018977;28;20163;-88
2023/12/21 06:40:33;;;;;;;0.00;0.00;;;9.30;99.90;;;;;;5035128;28;20041;-88
2023/12/21 06:42:58;;;;;;;0.10;0.10;;;9.30;99.90;;;;;;5035483;28;20037;-89
2023/12/21 06:45:25;;;;;;;0.25;0.25;;;9.30;99.90;;;;;;5034904;28;20069;-89
2023/12/21 06:47:51;;;;;;;0.45;0.45;;;9.30;99.90;;;;;;5018591;28;20041;-88
2023/12/21 06:50:16;;;;;;;4.78;0.98;;;9.30;99.90;;;;;;5018518;28;20486;-89
2023/12/21 06:52:42;;;;;;;0.10;0.10;;;9.30;99.90;;;;;;5035031;28;20048;-88
2023/12/21 06:55:08;;;;;;;0.00;0.00;;;9.20;1.00;;;;;;5034999;28;20513;-89
2023/12/21 06:57:34;;;;;;;6.03;1.75;;;9.30;1.00;;;;;;5035125;28;20103;-88
2023/12/21 06:59:59;;;;;;;0.30;0.30;;;9.20;1.00;;;;;;5035129;28;20490;-89
2023/12/21 07:02:25;;;;;;;0.30;0.20;;;9.30;1.00;;;;;;5035253;28;20051;-89
2023/12/21 07:04:51;;;;;;;0.10;0.10;;;9.20;1.00;;;;;;5034874;28;20041;-89
2023/12/21 07:07:16;;;;;;;0.00;0.00;;;9.30;1.00;;;;;;5035306;28;20506;-89
2023/12/21 07:09:42;;;;;;;0.00;0.00;;;10.50;1.00;;;;;;5018382;28;20399;-89
2023/12/21 07:12:08;;;;;;;0.52;0.22;;;9.60;24.50;;;;;;5035024;28;20553;-89
2023/12/21 07:14:33;;;;;;;0.00;0.00;;;9.30;1.00;;;;;;5034750;28;20056;-89
2023/12/21 07:16:59;;;;;;;1.17;1.08;;;9.20;2.00;;;;;;5037157;28;20044;-88
2023/12/21 07:19:24;;;;;;;0.20;0.20;;;9.20;53.40;;;;;;5040198;28;20487;-88
2023/12/21 07:21:50;;;;;;;0.00;0.00;;;9.20;99.90;;;;;;5040028;28;20084;-89
2023/12/21 07:24:16;;;;;;;0.55;0.55;;;9.20;99.90;;;;;;5040032;28;20045;-89
2023/12/21 07:26:41;;;;;;;0.10;0.10;;;9.30;99.90;;;;;;5040119;28;20047;-89
2023/12/21 07:29:07;;;;;;;1.63;1.10;;;9.30;99.90;;;;;;5039934;28;20475;-88
2023/12/21 07:31:32;;;;;;;0.00;0.00;;;9.20;99.90;;;;;;5039861;28;20084;-88
2023/12/21 07:33:58;;;;;;;0.00;0.00;;;9.20;99.90;;;;;;5057314;28;20044;-88
2023/12/21 07:36:23;;;;;;;0.00;0.00;;;9.20;99.90;;;;;;5066298;28;20052;-88
2023/12/21 07:38:49;;;;;;;0.22;0.10;;;9.20;99.90;;;;;;5056904;28;20052;-88
2023/12/21 07:41:14;;;;;;;0.00;0.00;;;9.30;99.90;;;;;;5069616;28;20055;-88
2023/12/21 07:43:41;;;;;;;0.00;0.00;;;9.30;99.90;;;;;;5073886;28;20068;-88
2023/12/21 07:46:08;;;;;;;0.45;0.40;;;9.30;99.90;;;;;;5056136;28;20103;-88
2023/12/21 07:48:34;;;;;;;0.00;0.00;;;9.30;99.90;;;;;;5046289;28;20056;-88
2023/12/21 07:51:00;;;;;;;2.63;1.60;;;9.30;99.90;;;;;;5054912;28;20037;-88
2023/12/21 07:53:25;;;;;;;1.75;0.93;;;9.30;99.90;;;;;;5049498;28;20043;-88
2023/12/21 07:55:51;;;;;;;0.00;0.00;;;9.30;99.90;;;;;;5056098;28;20512;-88
2023/12/21 07:58:22;;;;;;;0.38;0.35;;;9.30;99.90;;;;;;5050083;28;20132;-88
2023/12/21 08:00:48;;;;;;;0.00;0.00;;;10.50;99.90;;;;;;5025375;28;20046;-89
2023/12/21 08:03:13;;;;;;;0.00;0.00;;;9.70;99.90;;;;;;5050316;28;20059;-88
2023/12/21 08:05:39;;;;;;;0.00;0.00;;;9.30;99.90;;;;;;5049394;28;20049;-88
2023/12/21 08:08:05;;;;;;;0.52;0.52;;;9.30;99.90;;;;;;5035144;28;20045;-88
2023/12/21 08:10:31;;;;;;;0.00;0.00;;;9.30;99.90;;;;;;5031179;28;20040;-88
2023/12/21 08:12:58;;;;;;;0.00;0.00;;;9.40;99.90;;;;;;5025296;28;20060;-88
2023/12/21 08:15:26;;;;;;;0.00;0.00;;;9.60;99.90;;;;;;5054577;28;20076;-88
2023/12/21 08:17:55;;;;;;;0.00;0.00;;;9.40;99.90;;;;;;5020078;28;20040;-89
2023/12/21 08:20:22;;;;;;;0.80;0.38;;;9.40;99.90;;;;;;5020065;28;20049;-89
2023/12/21 08:22:48;;;;;;;0.00;0.00;;;9.30;99.90;;;;;;5019692;28;20049;-88
2023/12/21 08:25:13;;;;;;;0.00;0.00;;;9.40;1.00;;;;;;5018624;28;20037;-88
2023/12/21 08:27:41;;;;;;;0.00;0.00;;;9.40;1.00;;;;;;5044233;28;20045;-89
2023/12/21 08:30:08;;;;;;;0.45;0.45;;;9.40;1.00;;;;;;5072727;28;20375;-89
2023/12/21 08:32:33;;;;;;;0.00;0.00;;;9.50;1.00;;;;;;5073473;28;20101;-89
2023/12/21 08:35:00;;;;;;;3.25;0.47;;;10.10;1.00;;;;;;5038952;28;20048;-89
2023/12/21 08:37:25;;;;;;;0.00;0.00;;;9.40;1.00;;;;;;5072806;28;20040;-88
2023/12/21 08:39:51;;;;;;;0.00;0.00;;;9.50;1.00;;;;;;5018225;28;20029;-88
2023/12/21 08:42:16;;;;;;;0.00;0.00;;;9.50;1.00;;;;;;5052804;28;20037;-88
2023/12/21 08:44:42;;;;;;;1.55;1.27;;;9.50;1.00;;;;;;5018319;28;20053;-88
2023/12/21 08:47:07;;;;;;;1.35;0.80;;;9.50;1.00;;;;;;5018050;28;20057;-88
2023/12/21 08:49:33;;;;;;;1.33;0.80;;;9.50;1.00;;;;;;5018610;28;20402;-88
2023/12/21 08:51:59;;;;;;;0.00;0.00;;;9.60;1.00;;;;;;5018433;28;20045;-88
2023/12/21 08:54:24;;;;;;;0.00;0.00;;;9.60;99.90;;;;;;5017932;28;20053;-88
2023/12/21 08:56:53;;;;;;;0.00;0.00;;;9.60;99.90;;;;;;5034833;28;20124;-88
2023/12/21 08:59:19;;;;;;;0.00;0.00;;;9.60;99.90;;;;;;5034319;28;20547;-88
2023/12/21 09:01:45;;;;;;;0.10;0.10;;;9.60;1.00;;;;;;5051887;28;20045;-88
2023/12/21 09:04:10;;;;;;;0.00;0.00;;;9.60;99.90;;;;;;5038519;28;20513;-88
2023/12/21 09:06:36;;;;;;;0.13;0.08;;;9.60;99.90;;;;;;5020238;28;20107;-89
2023/12/21 09:09:03;;;;;;;0.00;0.00;;;9.60;1.00;;;;;;5019344;28;20045;-88
2023/12/21 09:11:29;;;;;;;0.00;0.00;;;9.60;1.00;;;;;;5018566;28;20461;-88
2023/12/21 09:13:56;;;;;;;0.38;0.38;;;9.60;1.00;;;;;;5034004;28;20045;-88
2023/12/21 09:16:22;;;;;;;0.00;0.00;;;9.60;1.00;;;;;;5051748;28;20453;-88
2023/12/21 09:18:47;;;;;;;0.17;0.13;;;9.60;1.00;;;;;;5040365;28;20051;-88
2023/12/21 09:21:13;;;;;;;0.00;0.00;;;10.30;1.00;;;;;;5054274;28;20036;-88
2023/12/21 09:23:40;;;;;;;2.38;1.55;;;9.70;1.00;;;;;;5053669;28;20041;-87
2023/12/21 09:26:10;;;;;;;0.00;0.00;;;9.70;1.00;;;;;;5055613;28;20071;-87
2023/12/21 09:28:37;;;;;;;0.00;0.00;;;9.70;1.00;;;;;;5017334;28;20064;-87
2023/12/21 09:31:04;;;;;;;0.38;0.35;;;9.80;1.00;;;;;;5044963;28;20095;-87
2023/12/21 09:33:33;;;;;;;0.10;0.10;;;11.20;1.00;;;;;;5040431;28;20563;-88
2023/12/21 09:35:59;;;;;;;0.00;0.00;;;10.80;1.00;;;;;;5070147;28;20029;-88
2023/12/21 09:38:25;;;;;;;0.00;0.00;;;10.80;1.00;;;;;;5045034;28;20047;-88
2023/12/21 09:40:50;;;;;;;0.20;0.20;;;11.20;1.00;;;;;;5017171;28;20080;-88
2023/12/21 09:43:21;;;;;;;0.30;0.22;;;9.90;1.00;;;;;;5033314;28;20049;-88
2023/12/21 09:45:51;;;;;;;0.28;0.28;;;9.90;1.00;;;;;;5033856;28;20050;-88
2023/12/21 09:48:18;;;;;;;0.50;0.43;;;11.30;1.00;;;;;;5051373;28;20036;-88
2023/12/21 09:50:45;;;;;;;0.00;0.00;;;9.90;1.00;;;;;;5017294;28;20273;-88
2023/12/21 09:53:13;;;;;;;0.00;0.00;;;10.00;1.00;;;;;;5033044;28;20612;-88
2023/12/21 09:55:42;;;;;;;0.00;0.00;;;11.20;1.00;;;;;;5033101;28;20098;-88
2023/12/21 09:58:09;;;;;;;1.00;0.98;;;10.00;99.90;;;;;;5019242;28;20044;-88
2023/12/21 10:00:35;;;;;;;0.00;0.00;;;10.00;99.90;;;;;;5052648;28;20084;-88
2023/12/21 10:03:01;;;;;;;2.17;1.08;;;10.40;99.90;;;;;;5044613;28;20072;-88
2023/12/21 10:05:27;;;;;;;1.55;0.43;;;10.10;99.90;;;;;;5033245;28;20037;-88
2023/12/21 10:07:52;;;;;;;0.00;0.00;;;10.10;99.90;;;;;;5033376;28;20048;-88
2023/12/21 10:10:19;;;;;;;0.00;0.00;;;10.10;99.90;;;;;;5032760;28;20132;-88
2023/12/21 10:12:45;;;;;;;0.15;0.15;;;11.30;99.90;;;;;;5033046;28;20081;-87
2023/12/21 10:15:12;;;;;;;0.00;0.00;;;10.10;99.90;;;;;;5030452;28;20144;-88
2023/12/21 10:17:38;;;;;;;0.00;0.00;;;10.10;99.90;;;;;;5050466;28;20128;-88
2023/12/21 10:20:04;;;;;;;0.55;0.55;;;10.10;99.90;;;;;;5048441;28;20059;-88
2023/12/21 10:22:30;;;;;;;0.22;0.22;;;10.10;99.90;;;;;;5031182;28;20049;-88
2023/12/21 10:24:56;;;;;;;0.10;0.10;;;10.10;99.90;;;;;;5051894;28;20126;-88
2023/12/21 10:27:22;;;;;;;0.03;0.03;;;10.10;99.90;;;;;;5033990;28;20049;-88
2023/12/21 10:29:55;;;;;;;0.63;0.35;;;10.10;99.90;;;;;;5034050;28;20053;-88
2023/12/21 10:32:22;;;;;;;0.00;0.00;;;10.10;99.90;;;;;;5051778;28;20045;-88
2023/12/21 10:34:48;;;;;;;0.00;0.00;;;10.10;99.90;;;;;;5033250;28;20052;-87
2023/12/21 10:37:17;;;;;;;9.07;3.47;;;10.10;99.90;;;;;;5050992;28;20110;-87
2023/12/21 10:39:43;;;;;;;3.75;1.70;;;10.10;99.90;;;;;;5050871;28;20068;-88
2023/12/21 10:42:09;;;;;;;0.40;0.40;;;10.20;1.00;;;;;;5051163;28;20059;-88
2023/12/21 10:44:35;;;;;;;0.00;0.00;;;10.90;1.00;;;;;;5051467;28;20049;-88
2023/12/21 10:47:01;;;;;;;0.10;0.10;;;10.20;1.00;;;;;;5033902;28;20091;-88
2023/12/21 10:49:27;;;;;;;3.90;2.15;;;10.20;1.00;;;;;;5051975;28;20072;-88
2023/12/21 10:51:54;;;;;;;0.00;0.00;;;10.20;99.90;;;;;;5051884;28;20045;-88
2023/12/21 10:54:22;;;;;;;1.90;1.77;;;10.20;99.90;;;;;;5051258;28;20146;-88
2023/12/21 10:56:48;;;;;;;1.65;1.13;;;10.50;99.90;;;;;;5033059;28;20388;-88
2023/12/21 10:59:14;;;;;;;4.03;1.10;;;10.30;1.00;;;;;;5033058;28;20052;-88
2023/12/21 11:01:40;;;;;;;3.20;0.80;;;10.60;1.00;;;;;;5033801;28;20048;-88
2023/12/21 11:04:08;;;;;;;0.00;0.00;;;10.20;1.00;;;;;;5052952;28;20041;-88
2023/12/21 11:06:35;;;;;;;0.15;0.15;;;10.30;99.90;;;;;;5034931;28;20041;-88
2023/12/21 11:09:05;;;;;;;0.40;0.40;;;10.30;99.90;;;;;;5051824;28;20479;-88
2023/12/21 11:11:32;;;;;;;8.15;1.65;;;10.20;99.90;;;;;;5034554;28;20049;-88
2023/12/21 11:13:58;;;;;;;1.13;0.93;;;10.30;99.90;;;;;;5017719;28;20044;-88
2023/12/21 11:16:37;;;;;;;0.32;0.32;;;10.30;99.90;;;;;;5034114;28;20128;-88
2023/12/21 11:19:06;;;;;;;0.10;0.10;;;11.00;99.90;;;;;;5034972;28;20085;-88
2023/12/21 11:21:33;;;;;;;0.35;0.35;;;10.20;99.90;;;;;;5044399;28;20049;-88
2023/12/21 11:23:59;;;;;;;1.65;1.38;;;10.20;99.90;;;;;;5052914;28;20041;-88
2023/12/21 11:26:27;;;;;;;0.05;0.05;;;10.20;28.00;;;;;;5052503;28;20397;-88
2023/12/21 11:29:06;;;;;;;0.73;0.60;;;10.20;1.00;;;;;;5034975;28;20096;-88
2023/12/21 11:31:38;;;;;;;0.20;0.20;;;10.20;99.90;;;;;;5052293;28;20045;-88
2023/12/21 11:34:14;;;;;;;0.52;0.45;;;10.10;99.90;;;;;;5052233;28;20049;-88
2023/12/21 11:36:41;;;;;;;3.58;2.28;;;10.20;99.90;;;;;;5052045;28;20453;-88
2023/12/21 11:39:12;;;;;;;0.10;0.10;;;10.20;99.90;;;;;;5052079;28;20045;-88
2023/12/21 11:41:57;;;;;;;2.80;1.63;;;11.10;28.30;;;;;;5018252;28;20091;-88
2023/12/21 11:44:24;;;;;;;0.00;0.00;;;10.20;99.90;;;;;;5034169;28;20056;-88
2023/12/21 11:46:56;;;;;;;4.32;1.52;;;10.20;99.90;;;;;;5034086;28;20102;-87
2023/12/21 11:49:26;;;;;;;2.97;2.15;;;10.20;99.90;;;;;;5034355;28;20513;-88
2023/12/21 11:51:51;;;;;;;0.22;0.22;;;10.20;99.90;;;;;;5051631;28;20048;-88
2023/12/21 11:54:22;;;;;;;10.45;1.75;;;10.20;99.90;;;;;;5051795;28;20406;-88
2023/12/21 11:56:52;;;;;;;3.90;1.55;;;10.10;99.90;;;;;;5034232;28;20076;-87
2023/12/21 11:59:22;;;;;;;0.00;0.00;;;10.10;11.40;;;;;;5034433;28;20081;-88
2023/12/21 12:01:49;;;;;;;13.32;3.50;;;10.10;90.10;;;;;;5052155;28;20053;-88
2023/12/21 12:04:15;;;;;;;0.50;0.45;;;10.10;1.00;;;;;;5034442;28;20036;-88
2023/12/21 12:06:43;;;;;;;1.40;0.57;;;10.60;1.00;;;;;;5038584;28;20088;-88
2023/12/21 12:09:08;;;;;;;1.45;0.70;;;10.00;99.90;;;;;;5055848;28;20068;-88
2023/12/21 12:11:34;;;;;;;0.30;0.30;;;10.00;1.00;;;;;;5055734;28;20057;-88
2023/12/21 12:14:00;;;;;;;2.45;1.30;;;10.10;1.00;;;;;;5038068;28;20107;-88
2023/12/21 12:16:25;;;;;;;0.10;0.10;;;10.20;1.00;;;;;;5037702;28;20037;-88
2023/12/21 12:18:54;;;;;;;31.35;2.17;;;10.20;99.90;;;;;;5038248;28;20053;-89
2023/12/21 12:21:20;;;;;;;0.00;0.00;;;10.20;99.90;;;;;;5055778;28;20048;-88
2023/12/21 12:23:46;;;;;;;1.23;0.65;;;10.10;1.00;;;;;;5055607;28;20505;-88
2023/12/21 12:26:18;;;;;;;0.22;0.22;;;10.10;99.90;;;;;;5021260;28;20049;-88
2023/12/21 12:28:44;;;;;;;0.30;0.20;;;10.10;99.90;;;;;;5055524;28;20135;-88
2023/12/21 12:31:11;;;;;;;6.97;0.85;;;11.00;1.00;;;;;;5055669;28;20096;-89
2023/12/21 12:33:38;;;;;;;1.00;0.52;;;10.20;1.00;;;;;;5055598;28;20037;-89
2023/12/21 12:36:04;;;;;;;0.10;0.10;;;10.20;1.00;;;;;;5055655;28;20130;-89
2023/12/21 12:38:30;;;;;;;0.00;0.00;;;10.10;99.90;;;;;;5037566;28;20051;-88
2023/12/21 12:40:57;;;;;;;1.45;0.57;;;10.10;1.00;;;;;;5037672;28;20402;-88
2023/12/21 12:43:24;;;;;;;0.95;0.90;;;10.10;7.50;;;;;;5055309;28;20573;-89
2023/12/21 12:45:50;;;;;;;17.60;2.63;;;10.20;99.90;;;;;;5055296;28;20072;-89
2023/12/21 12:48:18;;;;;;;1.10;0.60;;;10.20;99.90;;;;;;5055409;28;20171;-89
2023/12/21 12:50:44;;;;;;;1.20;1.10;;;10.20;99.90;;;;;;5037222;28;20057;-89